NJE350 LFLJ-LSGS
Flight info
| Callsign | NJE350 |
|---|---|
| Flight time | 0h 33m |
| Altitude | 20000 |
| Route | VANAS N853 MOBLO Y224 VALOR |
| Aircraft | C25B/M-SDE2E3FGHRWXY/LB1 |
Departure
| Time | 2026-04-19 14:33 |
|---|---|
| Airport | Courchevel Altiport (LFLJ) |
Arrival
| Time | 2026-04-19 15:06 |
|---|---|
| Airport | Sion Airport (LSGS) |
| Time | Latitude | Longitude | Altitude | Speed | Heading |
|---|---|---|---|---|---|
| 2026-04-19 14:27 | 45.39589 | 6.63391 | 6630 ft | 0 kts | 33° |
| 2026-04-19 14:31 | 45.39592 | 6.63394 | 6631 ft | 4 kts | 32° |
| 2026-04-19 14:32 | 45.39600 | 6.63386 | 6631 ft | 4 kts | 249° |
| 2026-04-19 14:32 | 45.39558 | 6.63324 | 6628 ft | 3 kts | 226° |
| 2026-04-19 14:32 | 45.39578 | 6.63284 | 6630 ft | 5 kts | 353° |
| 2026-04-19 14:32 | 45.39601 | 6.63293 | 6630 ft | 2 kts | 43° |
| 2026-04-19 14:33 | 45.39673 | 6.63389 | 6621 ft | 30 kts | 44° |
| 2026-04-19 14:33 | 45.40109 | 6.63972 | 6437 ft | 136 kts | 38° |
| 2026-04-19 14:33 | 45.40828 | 6.64886 | 7478 ft | 142 kts | 39° |
| 2026-04-19 14:33 | 45.41578 | 6.65886 | 8591 ft | 154 kts | 41° |
| 2026-04-19 14:34 | 45.42286 | 6.67212 | 9605 ft | 189 kts | 62° |
| 2026-04-19 14:34 | 45.42710 | 6.69114 | 10664 ft | 210 kts | 64° |
| 2026-04-19 14:34 | 45.43575 | 6.70812 | 11927 ft | 216 kts | 43° |
| 2026-04-19 14:35 | 45.45802 | 6.73622 | 14708 ft | 214 kts | 20° |
| 2026-04-19 14:35 | 45.47180 | 6.74352 | 15954 ft | 207 kts | 3° |
| 2026-04-19 14:35 | 45.48599 | 6.74505 | 17264 ft | 201 kts | 351° |
| 2026-04-19 14:35 | 45.49980 | 6.74380 | 18597 ft | 198 kts | 350° |
| 2026-04-19 14:36 | 45.51330 | 6.74329 | 19765 ft | 192 kts | 351° |
| 2026-04-19 14:36 | 45.52736 | 6.74230 | 20099 ft | 218 kts | 349° |
| 2026-04-19 14:36 | 45.54363 | 6.74070 | 20119 ft | 248 kts | 351° |
| 2026-04-19 14:36 | 45.56189 | 6.73960 | 20124 ft | 276 kts | 352° |
| 2026-04-19 14:37 | 45.58194 | 6.73841 | 20129 ft | 300 kts | 352° |
| 2026-04-19 14:37 | 45.60318 | 6.73691 | 20128 ft | 319 kts | 352° |
| 2026-04-19 14:37 | 45.62596 | 6.73534 | 20127 ft | 335 kts | 352° |
| 2026-04-19 14:37 | 45.64980 | 6.73371 | 20123 ft | 348 kts | 352° |
| 2026-04-19 14:38 | 45.67443 | 6.73203 | 20120 ft | 359 kts | 353° |
| 2026-04-19 14:38 | 45.69978 | 6.73039 | 20117 ft | 368 kts | 352° |
| 2026-04-19 14:38 | 45.72568 | 6.72856 | 20114 ft | 376 kts | 352° |
| 2026-04-19 14:38 | 45.75201 | 6.72672 | 20115 ft | 381 kts | 353° |
| 2026-04-19 14:39 | 45.77875 | 6.72764 | 20119 ft | 391 kts | 2° |
| 2026-04-19 14:39 | 45.80577 | 6.73511 | 20111 ft | 398 kts | 10° |
| 2026-04-19 14:39 | 45.83168 | 6.74906 | 20111 ft | 406 kts | 20° |
| 2026-04-19 14:39 | 45.85644 | 6.76938 | 20111 ft | 413 kts | 30° |
| 2026-04-19 14:40 | 45.87985 | 6.79349 | 20113 ft | 414 kts | 30° |
| 2026-04-19 14:40 | 45.90369 | 6.81679 | 20115 ft | 415 kts | 29° |
| 2026-04-19 14:40 | 45.92735 | 6.84071 | 20111 ft | 414 kts | 31° |
| 2026-04-19 14:40 | 45.95081 | 6.86456 | 20113 ft | 411 kts | 30° |
| 2026-04-19 14:41 | 45.97441 | 6.88775 | 20120 ft | 411 kts | 29° |
| 2026-04-19 14:41 | 45.99789 | 6.91132 | 20116 ft | 411 kts | 31° |
| 2026-04-19 14:41 | 46.02093 | 6.93499 | 20112 ft | 412 kts | 30° |
| 2026-04-19 14:41 | 46.04426 | 6.96024 | 20098 ft | 418 kts | 37° |
| 2026-04-19 14:42 | 46.06398 | 6.99074 | 20083 ft | 425 kts | 46° |
| 2026-04-19 14:42 | 46.08071 | 7.02607 | 20080 ft | 429 kts | 56° |
| 2026-04-19 14:42 | 46.09541 | 7.06328 | 20080 ft | 425 kts | 55° |
| 2026-04-19 14:42 | 46.11059 | 7.09985 | 20082 ft | 426 kts | 55° |
| 2026-04-19 14:43 | 46.12559 | 7.13683 | 20075 ft | 428 kts | 56° |
| 2026-04-19 14:43 | 46.14038 | 7.17422 | 20074 ft | 430 kts | 56° |
| 2026-04-19 14:43 | 46.15537 | 7.21165 | 20060 ft | 431 kts | 56° |
| 2026-04-19 14:43 | 46.17057 | 7.24920 | 20055 ft | 433 kts | 56° |
| 2026-04-19 14:44 | 46.18569 | 7.28698 | 20057 ft | 435 kts | 56° |
| 2026-04-19 14:44 | 46.20072 | 7.32483 | 20059 ft | 434 kts | 56° |
| 2026-04-19 14:44 | 46.21574 | 7.36211 | 20055 ft | 435 kts | 56° |
| 2026-04-19 14:44 | 46.23080 | 7.39996 | 20054 ft | 435 kts | 56° |
| 2026-04-19 14:45 | 46.24599 | 7.43805 | 20055 ft | 435 kts | 56° |
| 2026-04-19 14:45 | 46.26103 | 7.47600 | 20059 ft | 435 kts | 56° |
| 2026-04-19 14:45 | 46.27623 | 7.51369 | 20119 ft | 432 kts | 54° |
| 2026-04-19 14:45 | 46.29472 | 7.54751 | 20099 ft | 425 kts | 43° |
| 2026-04-19 14:46 | 46.31557 | 7.57761 | 20104 ft | 423 kts | 39° |
| 2026-04-19 14:46 | 46.33686 | 7.60731 | 20118 ft | 427 kts | 39° |
| 2026-04-19 14:46 | 46.35836 | 7.63744 | 20119 ft | 437 kts | 40° |
| 2026-04-19 14:46 | 46.38002 | 7.66838 | 20124 ft | 449 kts | 40° |
| 2026-04-19 14:47 | 46.40263 | 7.70008 | 20116 ft | 449 kts | 39° |
| 2026-04-19 14:47 | 46.42473 | 7.73046 | 20112 ft | 429 kts | 39° |
| 2026-04-19 14:47 | 46.44541 | 7.76073 | 20101 ft | 416 kts | 40° |
| 2026-04-19 14:47 | 46.46577 | 7.78964 | 20094 ft | 403 kts | 38° |
| 2026-04-19 14:48 | 46.48578 | 7.81730 | 20094 ft | 392 kts | 38° |
| 2026-04-19 14:48 | 46.50508 | 7.84470 | 20093 ft | 383 kts | 39° |
| 2026-04-19 14:48 | 46.52398 | 7.87168 | 20093 ft | 377 kts | 39° |
| 2026-04-19 14:48 | 46.54250 | 7.89819 | 20087 ft | 371 kts | 38° |
| 2026-04-19 14:49 | 46.56093 | 7.92408 | 20090 ft | 367 kts | 38° |
| 2026-04-19 14:49 | 46.57908 | 7.95001 | 20095 ft | 363 kts | 39° |
| 2026-04-19 14:49 | 46.59702 | 7.97569 | 20093 ft | 359 kts | 38° |
| 2026-04-19 14:49 | 46.61458 | 8.00058 | 20093 ft | 356 kts | 38° |
| 2026-04-19 14:50 | 46.63218 | 8.02579 | 20094 ft | 354 kts | 38° |
| 2026-04-19 14:50 | 46.64977 | 8.05083 | 20093 ft | 352 kts | 38° |
| 2026-04-19 14:50 | 46.66587 | 8.07787 | 20090 ft | 357 kts | 52° |
| 2026-04-19 14:50 | 46.67747 | 8.11001 | 20089 ft | 360 kts | 63° |
| 2026-04-19 14:51 | 46.68393 | 8.14532 | 20096 ft | 362 kts | 78° |
| 2026-04-19 14:51 | 46.68539 | 8.18187 | 20092 ft | 365 kts | 92° |
| 2026-04-19 14:51 | 46.68085 | 8.21834 | 20096 ft | 368 kts | 105° |
| 2026-04-19 14:51 | 46.67083 | 8.25265 | 20085 ft | 368 kts | 121° |
| 2026-04-19 14:52 | 46.65613 | 8.28283 | 20089 ft | 365 kts | 134° |
| 2026-04-19 14:52 | 46.63722 | 8.30705 | 20097 ft | 360 kts | 147° |
| 2026-04-19 14:52 | 46.61543 | 8.32457 | 20084 ft | 356 kts | 162° |
| 2026-04-19 14:52 | 46.59189 | 8.33474 | 20086 ft | 351 kts | 174° |
| 2026-04-19 14:53 | 46.56780 | 8.33735 | 20019 ft | 346 kts | 187° |
| 2026-04-19 14:53 | 46.54387 | 8.33257 | 19625 ft | 349 kts | 200° |
| 2026-04-19 14:53 | 46.52854 | 8.32529 | 19308 ft | 348 kts | 208° |
| 2026-04-19 14:53 | 46.50109 | 8.30228 | 18715 ft | 345 kts | 223° |
| 2026-04-19 14:54 | 46.48911 | 8.28642 | 18395 ft | 346 kts | 232° |
| 2026-04-19 14:54 | 46.47328 | 8.25997 | 17904 ft | 350 kts | 234° |
| 2026-04-19 14:54 | 46.45699 | 8.23334 | 17435 ft | 354 kts | 233° |
| 2026-04-19 14:54 | 46.44067 | 8.20634 | 16999 ft | 356 kts | 233° |
| 2026-04-19 14:55 | 46.42464 | 8.17926 | 16436 ft | 360 kts | 234° |
| 2026-04-19 14:55 | 46.40894 | 8.15199 | 15861 ft | 342 kts | 234° |
| 2026-04-19 14:55 | 46.39390 | 8.12642 | 15318 ft | 325 kts | 234° |
| 2026-04-19 14:55 | 46.37963 | 8.10224 | 14816 ft | 306 kts | 234° |
| 2026-04-19 14:56 | 46.36612 | 8.07922 | 14350 ft | 294 kts | 234° |
| 2026-04-19 14:56 | 46.35309 | 8.05711 | 13901 ft | 284 kts | 234° |
| 2026-04-19 14:56 | 46.34054 | 8.03563 | 13421 ft | 276 kts | 234° |
| 2026-04-19 14:56 | 46.32823 | 8.01484 | 12974 ft | 268 kts | 233° |
| 2026-04-19 14:57 | 46.31780 | 7.99329 | 12517 ft | 256 kts | 246° |
| 2026-04-19 14:57 | 46.31104 | 7.97003 | 12101 ft | 246 kts | 255° |
| 2026-04-19 14:57 | 46.30782 | 7.94625 | 11702 ft | 237 kts | 265° |
| 2026-04-19 14:57 | 46.30725 | 7.92292 | 11328 ft | 228 kts | 271° |
| 2026-04-19 14:58 | 46.30718 | 7.90048 | 10984 ft | 224 kts | 270° |
| 2026-04-19 14:58 | 46.30702 | 7.87822 | 10635 ft | 219 kts | 270° |
| 2026-04-19 14:58 | 46.30717 | 7.85631 | 10294 ft | 216 kts | 269° |
| 2026-04-19 14:58 | 46.30681 | 7.83475 | 9960 ft | 212 kts | 269° |
| 2026-04-19 14:59 | 46.30665 | 7.81359 | 9605 ft | 209 kts | 269° |
| 2026-04-19 14:59 | 46.30650 | 7.79262 | 9257 ft | 207 kts | 270° |
| 2026-04-19 14:59 | 46.30645 | 7.77188 | 8924 ft | 202 kts | 270° |
| 2026-04-19 14:59 | 46.30628 | 7.75208 | 8584 ft | 196 kts | 270° |
| 2026-04-19 15:00 | 46.30619 | 7.73312 | 8295 ft | 186 kts | 270° |
| 2026-04-19 15:00 | 46.30606 | 7.71464 | 7999 ft | 180 kts | 270° |
| 2026-04-19 15:00 | 46.30598 | 7.69679 | 7725 ft | 175 kts | 269° |
| 2026-04-19 15:00 | 46.30583 | 7.67938 | 7448 ft | 171 kts | 270° |
| 2026-04-19 15:01 | 46.30570 | 7.66160 | 7181 ft | 185 kts | 269° |
| 2026-04-19 15:01 | 46.30560 | 7.64198 | 6886 ft | 204 kts | 270° |
| 2026-04-19 15:01 | 46.30543 | 7.62083 | 6560 ft | 215 kts | 270° |
| 2026-04-19 15:01 | 46.30355 | 7.59948 | 6183 ft | 214 kts | 256° |
| 2026-04-19 15:02 | 46.29899 | 7.57894 | 5826 ft | 214 kts | 247° |
| 2026-04-19 15:02 | 46.29246 | 7.55987 | 5472 ft | 211 kts | 244° |
| 2026-04-19 15:02 | 46.28646 | 7.54052 | 5151 ft | 211 kts | 246° |
| 2026-04-19 15:02 | 46.28033 | 7.52129 | 4840 ft | 211 kts | 246° |
| 2026-04-19 15:03 | 46.27400 | 7.50202 | 4512 ft | 212 kts | 246° |
| 2026-04-19 15:03 | 46.26794 | 7.48298 | 4198 ft | 199 kts | 247° |
| 2026-04-19 15:03 | 46.26200 | 7.46783 | 3925 ft | 158 kts | 240° |
| 2026-04-19 15:03 | 46.25634 | 7.45535 | 3676 ft | 137 kts | 239° |
| 2026-04-19 15:04 | 46.25118 | 7.44394 | 3439 ft | 140 kts | 240° |
| 2026-04-19 15:04 | 46.24569 | 7.43138 | 3263 ft | 153 kts | 240° |
| 2026-04-19 15:04 | 46.24014 | 7.41864 | 3011 ft | 148 kts | 244° |
| 2026-04-19 15:04 | 46.23606 | 7.40557 | 2712 ft | 133 kts | 250° |
| 2026-04-19 15:05 | 46.23325 | 7.39360 | 2540 ft | 122 kts | 254° |
| 2026-04-19 15:05 | 46.23065 | 7.38156 | 2307 ft | 125 kts | 253° |
| 2026-04-19 15:05 | 46.22822 | 7.36941 | 2051 ft | 127 kts | 258° |
| 2026-04-19 15:05 | 46.22590 | 7.35773 | 1916 ft | 119 kts | 253° |
| 2026-04-19 15:06 | 46.22368 | 7.34717 | 1710 ft | 100 kts | 252° |
| 2026-04-19 15:06 | 46.22162 | 7.33768 | 1594 ft | 97 kts | 252° |
| 2026-04-19 15:06 | 46.21988 | 7.32951 | 1582 ft | 71 kts | 254° |
| 2026-04-19 15:06 | 46.21926 | 7.32647 | 1582 ft | 8 kts | 251° |